sensor_id;sensor_type;location;lat;lon;timestamp;pressure;altitude;pressure_sealevel;temperature;humidity
12781;BME280;6454;43.304;24.344;2023-04-01T00:01:15;99265.66;;;9.17;79.48
12781;BME280;6454;43.304;24.344;2023-04-01T00:03:42;99265.84;;;9.21;79.24
12781;BME280;6454;43.304;24.344;2023-04-01T00:06:12;99261.13;;;9.13;79.19
12781;BME280;6454;43.304;24.344;2023-04-01T00:08:39;99259.81;;;9.10;79.35
12781;BME280;6454;43.304;24.344;2023-04-01T00:11:06;99258.63;;;9.16;79.23
12781;BME280;6454;43.304;24.344;2023-04-01T00:13:33;99264.53;;;9.18;79.33
12781;BME280;6454;43.304;24.344;2023-04-01T00:16:02;99253.53;;;9.15;78.96
12781;BME280;6454;43.304;24.344;2023-04-01T00:18:29;99260.25;;;9.17;79.30
12781;BME280;6454;43.304;24.344;2023-04-01T00:20:56;99253.53;;;9.28;78.99
12781;BME280;6454;43.304;24.344;2023-04-01T00:23:23;99253.75;;;9.32;79.04
12781;BME280;6454;43.304;24.344;2023-04-01T00:25:50;99259.56;;;9.39;78.63
12781;BME280;6454;43.304;24.344;2023-04-01T00:28:18;99239.59;;;9.48;78.17
12781;BME280;6454;43.304;24.344;2023-04-01T00:30:45;99235.91;;;9.58;78.01
12781;BME280;6454;43.304;24.344;2023-04-01T00:33:14;99240.19;;;9.72;77.60
12781;BME280;6454;43.304;24.344;2023-04-01T00:35:41;99232.75;;;9.92;76.81
12781;BME280;6454;43.304;24.344;2023-04-01T00:38:08;99223.19;;;10.08;75.29
12781;BME280;6454;43.304;24.344;2023-04-01T00:40:38;99234.03;;;10.21;74.45
12781;BME280;6454;43.304;24.344;2023-04-01T00:43:10;99223.81;;;10.41;73.83
12781;BME280;6454;43.304;24.344;2023-04-01T00:45:39;99228.66;;;10.52;72.89
12781;BME280;6454;43.304;24.344;2023-04-01T00:48:09;99224.97;;;10.70;71.50
12781;BME280;6454;43.304;24.344;2023-04-01T00:50:39;99219.47;;;10.84;70.50
12781;BME280;6454;43.304;24.344;2023-04-01T00:53:07;99219.22;;;10.94;70.50
12781;BME280;6454;43.304;24.344;2023-04-01T00:55:37;99220.38;;;11.02;70.49
12781;BME280;6454;43.304;24.344;2023-04-01T00:58:09;99170.78;;;10.79;70.61
12781;BME280;6454;43.304;24.344;2023-04-01T01:00:38;99212.09;;;11.07;70.04
12781;BME280;6454;43.304;24.344;2023-04-01T01:03:05;99205.72;;;11.11;69.87
12781;BME280;6454;43.304;24.344;2023-04-01T01:05:42;99198.06;;;11.13;69.58
12781;BME280;6454;43.304;24.344;2023-04-01T01:08:19;99154.31;;;10.75;69.94
12781;BME280;6454;43.304;24.344;2023-04-01T01:10:49;99206.84;;;11.10;70.73
12781;BME280;6454;43.304;24.344;2023-04-01T01:13:20;99195.16;;;11.10;71.32
12781;BME280;6454;43.304;24.344;2023-04-01T01:15:56;99195.63;;;11.03;71.52
12781;BME280;6454;43.304;24.344;2023-04-01T01:18:29;99194.66;;;10.99;71.59
12781;BME280;6454;43.304;24.344;2023-04-01T01:21:28;99200.25;;;11.02;71.30
12781;BME280;6454;43.304;24.344;2023-04-01T01:24:28;99192.88;;;10.94;71.85
12781;BME280;6454;43.304;24.344;2023-04-01T01:27:06;99188.25;;;10.95;71.41
12781;BME280;6454;43.304;24.344;2023-04-01T01:30:01;99186.78;;;10.89;71.59
12781;BME280;6454;43.304;24.344;2023-04-01T01:32:56;99175.28;;;10.83;71.91
12781;BME280;6454;43.304;24.344;2023-04-01T01:35:31;99168.41;;;10.86;71.77
12781;BME280;6454;43.304;24.344;2023-04-01T01:38:04;99162.00;;;10.82;72.01
12781;BME280;6454;43.304;24.344;2023-04-01T01:40:33;99154.63;;;10.74;72.28
12781;BME280;6454;43.304;24.344;2023-04-01T01:43:05;99153.03;;;10.73;72.11
12781;BME280;6454;43.304;24.344;2023-04-01T01:45:34;99152.88;;;10.69;72.00
12781;BME280;6454;43.304;24.344;2023-04-01T01:48:05;99132.47;;;10.50;72.48
12781;BME280;6454;43.304;24.344;2023-04-01T01:50:35;99158.34;;;10.56;72.60
12781;BME280;6454;43.304;24.344;2023-04-01T01:53:04;99158.81;;;10.49;72.93
12781;BME280;6454;43.304;24.344;2023-04-01T01:55:33;99095.72;;;9.91;73.57
12781;BME280;6454;43.304;24.344;2023-04-01T01:58:14;99157.88;;;10.31;73.48
12781;BME280;6454;43.304;24.344;2023-04-01T02:00:46;99160.13;;;10.29;73.69
12781;BME280;6454;43.304;24.344;2023-04-01T02:03:15;99156.84;;;10.19;74.23
12781;BME280;6454;43.304;24.344;2023-04-01T02:05:45;99148.34;;;10.12;74.86
12781;BME280;6454;43.304;24.344;2023-04-01T02:08:15;99146.81;;;10.06;75.19
12781;BME280;6454;43.304;24.344;2023-04-01T02:10:46;99139.50;;;10.06;75.34
12781;BME280;6454;43.304;24.344;2023-04-01T02:13:19;99145.41;;;10.08;75.08
12781;BME280;6454;43.304;24.344;2023-04-01T02:15:50;99141.28;;;10.11;74.83
12781;BME280;6454;43.304;24.344;2023-04-01T02:18:21;99139.09;;;10.13;74.81
12781;BME280;6454;43.304;24.344;2023-04-01T02:20:51;99146.41;;;10.12;74.95
12781;BME280;6454;43.304;24.344;2023-04-01T02:23:18;99141.28;;;10.11;75.23
12781;BME280;6454;43.304;24.344;2023-04-01T02:25:46;99126.66;;;10.12;75.43
12781;BME280;6454;43.304;24.344;2023-04-01T02:28:14;99128.53;;;10.11;75.68
12781;BME280;6454;43.304;24.344;2023-04-01T02:30:46;99129.06;;;10.13;75.39
12781;BME280;6454;43.304;24.344;2023-04-01T02:33:15;99113.97;;;10.07;75.66
12781;BME280;6454;43.304;24.344;2023-04-01T02:35:43;99110.78;;;10.05;75.48
12781;BME280;6454;43.304;24.344;2023-04-01T02:38:12;99108.28;;;10.09;74.99
12781;BME280;6454;43.304;24.344;2023-04-01T02:40:46;99111.19;;;10.12;75.07
12781;BME280;6454;43.304;24.344;2023-04-01T02:43:14;99112.19;;;10.16;74.67
12781;BME280;6454;43.304;24.344;2023-04-01T02:45:41;99105.97;;;10.16;75.41
12781;BME280;6454;43.304;24.344;2023-04-01T02:48:08;99106.38;;;10.09;75.54
12781;BME280;6454;43.304;24.344;2023-04-01T02:50:35;99110.19;;;10.08;76.08
12781;BME280;6454;43.304;24.344;2023-04-01T02:53:02;99105.47;;;10.14;75.88
12781;BME280;6454;43.304;24.344;2023-04-01T02:55:33;99099.34;;;10.08;76.09
12781;BME280;6454;43.304;24.344;2023-04-01T02:58:00;99098.84;;;10.06;75.98
12781;BME280;6454;43.304;24.344;2023-04-01T03:00:27;99101.09;;;10.04;76.08
12781;BME280;6454;43.304;24.344;2023-04-01T03:02:54;99037.34;;;9.62;76.82
12781;BME280;6454;43.304;24.344;2023-04-01T03:05:21;99100.75;;;10.06;76.75
12781;BME280;6454;43.304;24.344;2023-04-01T03:07:48;99094.41;;;10.10;76.61
12781;BME280;6454;43.304;24.344;2023-04-01T03:10:15;99101.72;;;10.10;77.40
12781;BME280;6454;43.304;24.344;2023-04-01T03:12:44;99095.72;;;10.13;77.37
12781;BME280;6454;43.304;24.344;2023-04-01T03:15:11;99098.72;;;10.11;77.68
12781;BME280;6454;43.304;24.344;2023-04-01T03:17:40;99005.75;;;9.36;77.78
12781;BME280;6454;43.304;24.344;2023-04-01T03:20:08;99099.84;;;10.10;78.08
12781;BME280;6454;43.304;24.344;2023-04-01T03:22:36;99064.00;;;9.91;78.00
12781;BME280;6454;43.304;24.344;2023-04-01T03:25:04;99090.13;;;10.09;77.95
12781;BME280;6454;43.304;24.344;2023-04-01T03:27:31;99091.03;;;10.05;78.12
12781;BME280;6454;43.304;24.344;2023-04-01T03:29:59;99089.13;;;10.05;78.10
12781;BME280;6454;43.304;24.344;2023-04-01T03:32:26;99087.53;;;10.04;78.13
12781;BME280;6454;43.304;24.344;2023-04-01T03:34:53;99037.53;;;9.66;78.45
12781;BME280;6454;43.304;24.344;2023-04-01T03:37:20;99094.41;;;10.10;78.33
12781;BME280;6454;43.304;24.344;2023-04-01T03:39:46;99083.91;;;10.09;78.75
12781;BME280;6454;43.304;24.344;2023-04-01T03:42:13;99090.31;;;10.13;78.42
12781;BME280;6454;43.304;24.344;2023-04-01T03:44:40;99085.91;;;10.17;78.50
12781;BME280;6454;43.304;24.344;2023-04-01T03:47:08;99016.84;;;9.70;78.42
12781;BME280;6454;43.304;24.344;2023-04-01T03:49:35;99078.66;;;10.12;78.53
12781;BME280;6454;43.304;24.344;2023-04-01T03:52:02;99087.69;;;10.21;78.21
12781;BME280;6454;43.304;24.344;2023-04-01T03:54:29;99089.78;;;10.24;77.96
12781;BME280;6454;43.304;24.344;2023-04-01T03:56:56;99091.84;;;10.27;78.15
12781;BME280;6454;43.304;24.344;2023-04-01T03:59:23;99089.66;;;10.29;78.27
12781;BME280;6454;43.304;24.344;2023-04-01T04:01:50;99096.47;;;10.27;78.38
12781;BME280;6454;43.304;24.344;2023-04-01T04:04:18;99096.78;;;10.25;79.74
12781;BME280;6454;43.304;24.344;2023-04-01T04:06:45;99104.28;;;10.28;79.55
12781;BME280;6454;43.304;24.344;2023-04-01T04:09:12;99100.16;;;10.31;80.09
12781;BME280;6454;43.304;24.344;2023-04-01T04:11:39;99111.34;;;10.38;79.35
12781;BME280;6454;43.304;24.344;2023-04-01T04:14:05;99098.00;;;10.42;79.27
12781;BME280;6454;43.304;24.344;2023-04-01T04:16:34;99107.28;;;10.49;79.47
12781;BME280;6454;43.304;24.344;2023-04-01T04:19:02;99111.78;;;10.54;79.41
12781;BME280;6454;43.304;24.344;2023-04-01T04:21:31;99106.91;;;10.64;78.47
12781;BME280;6454;43.304;24.344;2023-04-01T04:23:58;99117.28;;;10.71;78.27
12781;BME280;6454;43.304;24.344;2023-04-01T04:26:25;99113.00;;;10.78;77.35
12781;BME280;6454;43.304;24.344;2023-04-01T04:28:54;99114.66;;;10.88;77.00
12781;BME280;6454;43.304;24.344;2023-04-01T04:31:22;99122.03;;;10.96;76.57
12781;BME280;6454;43.304;24.344;2023-04-01T04:33:49;99125.41;;;11.02;76.22
12781;BME280;6454;43.304;24.344;2023-04-01T04:36:17;99128.44;;;11.09;76.41
12781;BME280;6454;43.304;24.344;2023-04-01T04:38:45;99118.88;;;11.11;77.58
12781;BME280;6454;43.304;24.344;2023-04-01T04:41:13;99124.31;;;11.20;76.00
12781;BME280;6454;43.304;24.344;2023-04-01T04:43:41;99126.31;;;11.36;73.05
12781;BME280;6454;43.304;24.344;2023-04-01T04:46:08;99121.56;;;11.59;70.33
12781;BME280;6454;43.304;24.344;2023-04-01T04:48:35;99126.38;;;11.88;67.32
12781;BME280;6454;43.304;24.344;2023-04-01T04:51:03;99125.41;;;12.18;66.40
12781;BME280;6454;43.304;24.344;2023-04-01T04:53:29;99125.69;;;12.42;64.72
12781;BME280;6454;43.304;24.344;2023-04-01T04:55:57;99129.97;;;12.60;63.99
12781;BME280;6454;43.304;24.344;2023-04-01T04:58:24;99116.47;;;12.81;62.57
12781;BME280;6454;43.304;24.344;2023-04-01T05:00:51;98849.75;;;10.83;61.80
12781;BME280;6454;43.304;24.344;2023-04-01T05:03:18;99116.88;;;13.09;61.78
12781;BME280;6454;43.304;24.344;2023-04-01T05:05:49;99117.16;;;13.16;61.24
12781;BME280;6454;43.304;24.344;2023-04-01T05:08:16;98909.88;;;11.71;61.12
12781;BME280;6454;43.304;24.344;2023-04-01T05:10:43;99112.88;;;13.35;61.17
12781;BME280;6454;43.304;24.344;2023-04-01T05:13:11;99110.25;;;13.47;61.24
12781;BME280;6454;43.304;24.344;2023-04-01T05:15:38;99112.31;;;13.50;62.01
12781;BME280;6454;43.304;24.344;2023-04-01T05:18:05;99101.88;;;13.52;62.80
12781;BME280;6454;43.304;24.344;2023-04-01T05:20:32;98972.28;;;12.72;63.68
12781;BME280;6454;43.304;24.344;2023-04-01T05:22:59;99100.16;;;13.48;66.16
12781;BME280;6454;43.304;24.344;2023-04-01T05:25:26;99030.75;;;12.96;67.41
12781;BME280;6454;43.304;24.344;2023-04-01T05:27:53;99090.13;;;13.31;69.12
12781;BME280;6454;43.304;24.344;2023-04-01T05:30:22;99087.41;;;13.31;70.72
12781;BME280;6454;43.304;24.344;2023-04-01T05:32:48;99085.88;;;13.22;73.51
12781;BME280;6454;43.304;24.344;2023-04-01T05:35:15;99001.00;;;12.61;73.90
12781;BME280;6454;43.304;24.344;2023-04-01T05:37:42;98926.88;;;12.06;75.30
12781;BME280;6454;43.304;24.344;2023-04-01T05:40:10;99066.41;;;13.11;76.27
12781;BME280;6454;43.304;24.344;2023-04-01T05:42:37;99055.03;;;13.09;76.50
12781;BME280;6454;43.304;24.344;2023-04-01T05:45:04;99000.16;;;12.69;77.11
12781;BME280;6454;43.304;24.344;2023-04-01T05:47:33;99045.59;;;13.07;77.66
12781;BME280;6454;43.304;24.344;2023-04-01T05:50:00;99046.91;;;13.01;77.71
12781;BME280;6454;43.304;24.344;2023-04-01T05:52:27;99020.06;;;12.90;77.92
12781;BME280;6454;43.304;24.344;2023-04-01T05:54:54;98841.72;;;11.85;77.62
12781;BME280;6454;43.304;24.344;2023-04-01T05:57:20;98953.53;;;12.79;78.05
12781;BME280;6454;43.304;24.344;2023-04-01T05:59:47;99010.16;;;13.15;77.97
12781;BME280;6454;43.304;24.344;2023-04-01T06:02:17;99014.63;;;13.20;77.84
12781;BME280;6454;43.304;24.344;2023-04-01T06:04:46;99014.47;;;13.16;81.60
12781;BME280;6454;43.304;24.344;2023-04-01T06:07:14;99020.53;;;13.22;81.58
12781;BME280;6454;43.304;24.344;2023-04-01T06:09:42;99006.41;;;13.28;80.63
12781;BME280;6454;43.304;24.344;2023-04-01T06:12:31;99006.06;;;13.30;81.41
12781;BME280;6454;43.304;24.344;2023-04-01T06:15:19;99016.09;;;13.38;81.24
12781;BME280;6454;43.304;24.344;2023-04-01T06:17:57;99004.06;;;13.39;79.92
12781;BME280;6454;43.304;24.344;2023-04-01T06:20:37;99010.06;;;13.53;81.27
12781;BME280;6454;43.304;24.344;2023-04-01T06:23:16;98960.88;;;13.29;80.94
12781;BME280;6454;43.304;24.344;2023-04-01T06:25:54;98960.88;;;13.29;80.08
12781;BME280;6454;43.304;24.344;2023-04-01T06:28:44;98991.59;;;13.59;79.68
12781;BME280;6454;43.304;24.344;2023-04-01T06:31:24;99003.56;;;13.78;81.06
12781;BME280;6454;43.304;24.344;2023-04-01T06:34:06;99001.09;;;13.85;80.17
12781;BME280;6454;43.304;24.344;2023-04-01T06:36:54;99004.06;;;13.92;80.60
12781;BME280;6454;43.304;24.344;2023-04-01T06:39:38;98975.31;;;13.83;78.70
12781;BME280;6454;43.304;24.344;2023-04-01T06:42:28;98977.94;;;13.91;78.56
12781;BME280;6454;43.304;24.344;2023-04-01T06:45:09;98955.44;;;13.82;77.79
12781;BME280;6454;43.304;24.344;2023-04-01T06:47:51;99006.66;;;14.21;77.12
12781;BME280;6454;43.304;24.344;2023-04-01T06:50:26;98916.28;;;13.54;73.01
12781;BME280;6454;43.304;24.344;2023-04-01T06:53:04;98996.09;;;14.20;71.98
12781;BME280;6454;43.304;24.344;2023-04-01T06:55:37;98989.25;;;14.26;70.96
12781;BME280;6454;43.304;24.344;2023-04-01T06:58:13;98958.56;;;14.05;70.41
12781;BME280;6454;43.304;24.344;2023-04-01T07:00:46;98981.91;;;14.39;70.56
12781;BME280;6454;43.304;24.344;2023-04-01T07:03:20;98991.50;;;14.45;70.63
12781;BME280;6454;43.304;24.344;2023-04-01T07:05:49;98940.81;;;14.11;69.79
12781;BME280;6454;43.304;24.344;2023-04-01T07:08:19;98996.50;;;14.55;69.68
12781;BME280;6454;43.304;24.344;2023-04-01T07:10:50;98993.44;;;14.56;70.43
12781;BME280;6454;43.304;24.344;2023-04-01T07:13:23;98991.84;;;14.55;70.36
12781;BME280;6454;43.304;24.344;2023-04-01T07:16:07;98970.34;;;14.42;70.88
12781;BME280;6454;43.304;24.344;2023-04-01T07:18:42;98991.94;;;14.59;71.12
12781;BME280;6454;43.304;24.344;2023-04-01T07:21:20;99008.69;;;14.69;70.35
12781;BME280;6454;43.304;24.344;2023-04-01T07:23:50;99017.00;;;14.73;69.76
12781;BME280;6454;43.304;24.344;2023-04-01T07:26:20;98973.19;;;14.45;69.70
12781;BME280;6454;43.304;24.344;2023-04-01T07:28:48;98994.78;;;14.74;70.38
12781;BME280;6454;43.304;24.344;2023-04-01T07:31:25;98962.28;;;14.57;71.28
12781;BME280;6454;43.304;24.344;2023-04-01T07:34:03;98987.97;;;14.80;71.55
12781;BME280;6454;43.304;24.344;2023-04-01T07:36:36;98936.03;;;14.41;71.68
12781;BME280;6454;43.304;24.344;2023-04-01T07:39:14;98817.66;;;13.73;71.92
12781;BME280;6454;43.304;24.344;2023-04-01T07:41:51;98962.06;;;14.62;72.15
12781;BME280;6454;43.304;24.344;2023-04-01T07:44:26;98943.19;;;14.57;72.33
12781;BME280;6454;43.304;24.344;2023-04-01T07:47:13;98973.31;;;14.85;72.31
12781;BME280;6454;43.304;24.344;2023-04-01T07:49:50;98915.66;;;14.50;72.18
12781;BME280;6454;43.304;24.344;2023-04-01T07:52:25;98899.97;;;14.35;71.87
12781;BME280;6454;43.304;24.344;2023-04-01T07:54:59;98969.41;;;14.86;72.68
12781;BME280;6454;43.304;24.344;2023-04-01T07:57:34;98964.06;;;14.90;71.94
12781;BME280;6454;43.304;24.344;2023-04-01T08:00:09;98976.00;;;14.97;71.56
12781;BME280;6454;43.304;24.344;2023-04-01T08:02:52;98971.81;;;15.00;71.38
12781;BME280;6454;43.304;24.344;2023-04-01T08:05:27;98918.16;;;14.67;71.80
12781;BME280;6454;43.304;24.344;2023-04-01T08:08:01;98891.22;;;14.54;72.39
12781;BME280;6454;43.304;24.344;2023-04-01T08:10:36;98982.03;;;15.15;73.56
12781;BME280;6454;43.304;24.344;2023-04-01T08:13:14;98941.56;;;14.93;73.57
12781;BME280;6454;43.304;24.344;2023-04-01T08:15:50;98749.19;;;13.62;73.58
12781;BME280;6454;43.304;24.344;2023-04-01T08:18:32;98985.41;;;15.24;72.92
12781;BME280;6454;43.304;24.344;2023-04-01T08:21:14;98740.78;;;13.67;71.40
12781;BME280;6454;43.304;24.344;2023-04-01T08:23:46;98943.59;;;14.96;70.88
12781;BME280;6454;43.304;24.344;2023-04-01T08:26:20;98926.75;;;14.94;70.49
12781;BME280;6454;43.304;24.344;2023-04-01T08:28:56;98979.25;;;15.27;69.71
12781;BME280;6454;43.304;24.344;2023-04-01T08:31:29;98984.84;;;15.30;70.38
12781;BME280;6454;43.304;24.344;2023-04-01T08:34:00;98983.00;;;15.34;71.19
12781;BME280;6454;43.304;24.344;2023-04-01T08:36:33;98988.09;;;15.36;71.78
12781;BME280;6454;43.304;24.344;2023-04-01T08:39:04;98981.41;;;15.45;71.64
12781;BME280;6454;43.304;24.344;2023-04-01T08:41:56;98974.09;;;15.50;71.27
12781;BME280;6454;43.304;24.344;2023-04-01T08:44:46;98884.47;;;14.88;72.26
12781;BME280;6454;43.304;24.344;2023-04-01T08:48:00;98968.47;;;15.58;71.62
12781;BME280;6454;43.304;24.344;2023-04-01T08:51:05;98951.94;;;15.67;71.44
12781;BME280;6454;43.304;24.344;2023-04-01T08:53:52;98944.16;;;15.69;69.14
12781;BME280;6454;43.304;24.344;2023-04-01T08:56:29;98939.38;;;15.78;68.74
12781;BME280;6454;43.304;24.344;2023-04-01T08:59:16;98920.47;;;15.88;66.56
12781;BME280;6454;43.304;24.344;2023-04-01T09:04:52;98888.72;;;15.84;66.44
12781;BME280;6454;43.304;24.344;2023-04-01T09:07:35;98782.38;;;15.20;66.38
12781;BME280;6454;43.304;24.344;2023-04-01T09:10:36;98859.78;;;15.98;65.22
12781;BME280;6454;43.304;24.344;2023-04-01T09:13:36;98901.38;;;16.35;64.89
12781;BME280;6454;43.304;24.344;2023-04-01T09:16:28;98900.91;;;16.49;64.45
12781;BME280;6454;43.304;24.344;2023-04-01T09:19:16;98896.41;;;16.56;64.38
12781;BME280;6454;43.304;24.344;2023-04-01T09:21:57;98902.94;;;16.67;63.21
12781;BME280;6454;43.304;24.344;2023-04-01T09:24:40;98898.75;;;16.73;62.55
12781;BME280;6454;43.304;24.344;2023-04-01T09:27:15;98896.13;;;16.77;62.00
12781;BME280;6454;43.304;24.344;2023-04-01T09:36:04;98828.28;;;17.28;58.36
12781;BME280;6454;43.304;24.344;2023-04-01T09:38:42;98895.38;;;17.72;58.01
12781;BME280;6454;43.304;24.344;2023-04-01T09:41:17;98893.28;;;17.88;54.72
12781;BME280;6454;43.304;24.344;2023-04-01T09:43:58;98869.09;;;17.71;56.63
12781;BME280;6454;43.304;24.344;2023-04-01T09:46:37;98833.38;;;17.49;55.80
12781;BME280;6454;43.304;24.344;2023-04-01T09:49:40;98886.34;;;17.94;56.32
12781;BME280;6454;43.304;24.344;2023-04-01T09:52:22;98885.75;;;18.05;57.16
12781;BME280;6454;43.304;24.344;2023-04-01T09:55:04;98817.63;;;17.87;57.38
12781;BME280;6454;43.304;24.344;2023-04-01T10:00:50;98918.09;;;18.41;58.62
12781;BME280;6454;43.304;24.344;2023-04-01T10:06:55;98853.97;;;18.03;58.23
12781;BME280;6454;43.304;24.344;2023-04-01T10:12:48;98875.63;;;18.09;56.72
12781;BME280;6454;43.304;24.344;2023-04-01T10:15:47;98870.84;;;18.06;59.17
12781;BME280;6454;43.304;24.344;2023-04-01T10:18:56;98869.81;;;18.14;56.48
12781;BME280;6454;43.304;24.344;2023-04-01T10:27:47;98868.00;;;18.21;55.66
12781;BME280;6454;43.304;24.344;2023-04-01T10:30:38;98852.94;;;18.12;56.19
12781;BME280;6454;43.304;24.344;2023-04-01T10:33:26;98837.72;;;18.18;55.75
12781;BME280;6454;43.304;24.344;2023-04-01T10:36:30;98711.13;;;17.44;55.45
12781;BME280;6454;43.304;24.344;2023-04-01T10:39:33;98845.97;;;18.18;54.33
12781;BME280;6454;43.304;24.344;2023-04-01T10:45:46;98841.28;;;17.95;55.32
12781;BME280;6454;43.304;24.344;2023-04-01T10:54:45;98765.38;;;17.54;55.73
12781;BME280;6454;43.304;24.344;2023-04-01T10:57:43;98748.31;;;17.45;56.61
12781;BME280;6454;43.304;24.344;2023-04-01T11:00:30;98656.06;;;16.85;56.17
12781;BME280;6454;43.304;24.344;2023-04-01T11:03:41;98816.56;;;17.92;55.69
12781;BME280;6454;43.304;24.344;2023-04-01T11:12:52;98808.38;;;17.73;55.76
12781;BME280;6454;43.304;24.344;2023-04-01T11:27:29;98804.81;;;17.50;55.99
12781;BME280;6454;43.304;24.344;2023-04-01T11:30:14;98805.88;;;17.45;56.60
12781;BME280;6454;43.304;24.344;2023-04-01T11:32:51;98798.53;;;17.49;57.07
12781;BME280;6454;43.304;24.344;2023-04-01T11:38:31;98794.16;;;17.45;57.41
12781;BME280;6454;43.304;24.344;2023-04-01T11:41:13;98798.41;;;17.42;56.58
12781;BME280;6454;43.304;24.344;2023-04-01T11:44:01;98790.72;;;17.28;57.20
12781;BME280;6454;43.304;24.344;2023-04-01T11:46:34;98791.38;;;17.22;57.02
12781;BME280;6454;43.304;24.344;2023-04-01T11:49:11;98790.97;;;17.20;57.99
12781;BME280;6454;43.304;24.344;2023-04-01T11:52:02;98792.19;;;17.22;58.52
12781;BME280;6454;43.304;24.344;2023-04-01T11:54:47;98785.53;;;17.23;58.46
12781;BME280;6454;43.304;24.344;2023-04-01T11:57:40;98786.81;;;17.29;58.41
12781;BME280;6454;43.304;24.344;2023-04-01T12:00:25;98773.16;;;17.33;59.51
12781;BME280;6454;43.304;24.344;2023-04-01T12:03:15;98769.09;;;17.46;59.16
12781;BME280;6454;43.304;24.344;2023-04-01T12:05:51;98770.91;;;17.58;58.06
12781;BME280;6454;43.304;24.344;2023-04-01T12:08:40;98702.69;;;17.11;58.64
12781;BME280;6454;43.304;24.344;2023-04-01T12:11:16;98764.72;;;17.42;59.10
12781;BME280;6454;43.304;24.344;2023-04-01T12:13:50;98715.25;;;17.12;59.35
12781;BME280;6454;43.304;24.344;2023-04-01T12:16:29;98766.25;;;17.39;58.90
12781;BME280;6454;43.304;24.344;2023-04-01T12:19:11;98745.75;;;17.10;58.76
12781;BME280;6454;43.304;24.344;2023-04-01T12:21:45;98766.53;;;17.34;59.19
12781;BME280;6454;43.304;24.344;2023-04-01T12:24:29;98775.28;;;17.20;59.05
12781;BME280;6454;43.304;24.344;2023-04-01T12:27:06;98782.28;;;17.18;59.94
12781;BME280;6454;43.304;24.344;2023-04-01T12:29:49;98787.63;;;17.11;58.86
12781;BME280;6454;43.304;24.344;2023-04-01T12:32:25;98787.13;;;17.05;58.63
12781;BME280;6454;43.304;24.344;2023-04-01T12:35:10;98801.91;;;17.01;59.64
12781;BME280;6454;43.304;24.344;2023-04-01T12:37:42;98818.72;;;16.99;59.65
12781;BME280;6454;43.304;24.344;2023-04-01T12:44:04;98846.03;;;16.77;59.69
12781;BME280;6454;43.304;24.344;2023-04-01T12:46:45;98852.22;;;16.73;59.93
12781;BME280;6454;43.304;24.344;2023-04-01T12:49:28;98869.06;;;16.75;60.28
12781;BME280;6454;43.304;24.344;2023-04-01T12:52:04;98864.59;;;16.67;61.31
12781;BME280;6454;43.304;24.344;2023-04-01T12:55:01;98872.22;;;16.58;62.70
12781;BME280;6454;43.304;24.344;2023-04-01T12:57:52;98876.03;;;16.54;64.22
12781;BME280;6454;43.304;24.344;2023-04-01T13:00:35;98890.50;;;16.54;66.47
12781;BME280;6454;43.304;24.344;2023-04-01T13:03:19;98882.03;;;16.28;66.89
12781;BME280;6454;43.304;24.344;2023-04-01T13:09:11;98924.75;;;16.17;68.61
12781;BME280;6454;43.304;24.344;2023-04-01T13:11:57;98936.31;;;15.95;70.36
12781;BME280;6454;43.304;24.344;2023-04-01T13:17:34;98971.50;;;15.69;76.39
12781;BME280;6454;43.304;24.344;2023-04-01T13:20:06;98976.59;;;15.55;78.34
12781;BME280;6454;43.304;24.344;2023-04-01T13:22:52;98990.72;;;15.44;79.76
12781;BME280;6454;43.304;24.344;2023-04-01T13:25:26;99010.53;;;15.41;80.40
12781;BME280;6454;43.304;24.344;2023-04-01T13:28:09;99026.50;;;15.27;83.46
12781;BME280;6454;43.304;24.344;2023-04-01T13:30:44;99025.63;;;14.87;84.27
12781;BME280;6454;43.304;24.344;2023-04-01T13:33:21;99040.19;;;14.79;86.48
12781;BME280;6454;43.304;24.344;2023-04-01T13:36:01;99033.81;;;14.75;86.98
12781;BME280;6454;43.304;24.344;2023-04-01T13:41:38;98981.84;;;14.59;88.42
12781;BME280;6454;43.304;24.344;2023-04-01T13:44:13;98956.81;;;14.57;87.84
12781;BME280;6454;43.304;24.344;2023-04-01T13:46:59;98955.78;;;14.62;86.76
12781;BME280;6454;43.304;24.344;2023-04-01T13:49:54;98964.44;;;14.64;86.69
12781;BME280;6454;43.304;24.344;2023-04-01T13:55:53;98939.19;;;14.67;88.11
12781;BME280;6454;43.304;24.344;2023-04-01T13:58:49;98949.41;;;14.82;89.42
12781;BME280;6454;43.304;24.344;2023-04-01T14:01:28;98952.47;;;14.93;92.91
12781;BME280;6454;43.304;24.344;2023-04-01T14:07:05;98928.00;;;14.96;90.27
12781;BME280;6454;43.304;24.344;2023-04-01T14:10:06;98917.28;;;15.03;92.17
12781;BME280;6454;43.304;24.344;2023-04-01T14:12:41;98899.06;;;15.07;89.52
12781;BME280;6454;43.304;24.344;2023-04-01T14:25:43;98878.72;;;15.32;85.38
12781;BME280;6454;43.304;24.344;2023-04-01T14:28:18;98865.41;;;15.31;87.77
12781;BME280;6454;43.304;24.344;2023-04-01T14:31:13;98836.84;;;15.28;86.92
12781;BME280;6454;43.304;24.344;2023-04-01T14:33:47;98846.81;;;15.36;86.10
12781;BME280;6454;43.304;24.344;2023-04-01T14:36:41;98844.78;;;15.45;85.38
12781;BME280;6454;43.304;24.344;2023-04-01T14:39:38;98835.78;;;15.61;85.48
12781;BME280;6454;43.304;24.344;2023-04-01T14:42:23;98787.75;;;15.60;82.71
12781;BME280;6454;43.304;24.344;2023-04-01T14:45:24;98804.06;;;15.72;84.80
12781;BME280;6454;43.304;24.344;2023-04-01T14:47:59;98804.22;;;15.79;84.64
12781;BME280;6454;43.304;24.344;2023-04-01T14:50:42;98805.28;;;15.74;82.42
12781;BME280;6454;43.304;24.344;2023-04-01T15:10:05;98771.16;;;15.09;88.44
12781;BME280;6454;43.304;24.344;2023-04-01T15:12:51;98766.13;;;15.11;89.27
12781;BME280;6454;43.304;24.344;2023-04-01T15:15:30;98742.97;;;15.05;90.28
12781;BME280;6454;43.304;24.344;2023-04-01T15:18:08;98767.13;;;15.19;88.69
12781;BME280;6454;43.304;24.344;2023-04-01T15:20:53;98766.69;;;15.17;87.68
12781;BME280;6454;43.304;24.344;2023-04-01T15:23:32;98761.41;;;15.24;86.42
12781;BME280;6454;43.304;24.344;2023-04-01T15:26:13;98759.91;;;15.26;86.47
12781;BME280;6454;43.304;24.344;2023-04-01T15:28:49;98756.03;;;15.27;83.76